sensor_id;sensor_type;location;lat;lon;timestamp;P1;durP1;ratioP1;P2;durP2;ratioP2
50012;SDS011;35901;48.694;9.476;2022-08-27T00:01:42;10.00;;;8.10;;
50012;SDS011;35901;48.694;9.476;2022-08-27T00:04:08;8.37;;;7.57;;
50012;SDS011;35901;48.694;9.476;2022-08-27T00:06:34;9.03;;;8.13;;
50012;SDS011;35901;48.694;9.476;2022-08-27T00:09:00;8.70;;;7.57;;
50012;SDS011;35901;48.694;9.476;2022-08-27T00:11:27;8.43;;;7.63;;
50012;SDS011;35901;48.694;9.476;2022-08-27T00:13:53;8.03;;;7.33;;
50012;SDS011;35901;48.694;9.476;2022-08-27T00:16:20;7.50;;;6.80;;
50012;SDS011;35901;48.694;9.476;2022-08-27T00:18:46;8.07;;;7.23;;
50012;SDS011;35901;48.694;9.476;2022-08-27T00:21:13;7.97;;;7.27;;
50012;SDS011;35901;48.694;9.476;2022-08-27T00:23:39;8.30;;;7.47;;
50012;SDS011;35901;48.694;9.476;2022-08-27T00:26:05;7.80;;;7.10;;
50012;SDS011;35901;48.694;9.476;2022-08-27T00:28:32;7.93;;;7.23;;
50012;SDS011;35901;48.694;9.476;2022-08-27T00:30:58;7.73;;;6.90;;
50012;SDS011;35901;48.694;9.476;2022-08-27T00:33:25;9.53;;;7.50;;
50012;SDS011;35901;48.694;9.476;2022-08-27T00:35:51;8.43;;;7.63;;
50012;SDS011;35901;48.694;9.476;2022-08-27T00:38:18;8.37;;;7.57;;
50012;SDS011;35901;48.694;9.476;2022-08-27T00:40:46;7.80;;;7.10;;
50012;SDS011;35901;48.694;9.476;2022-08-27T00:43:12;7.80;;;7.10;;
50012;SDS011;35901;48.694;9.476;2022-08-27T00:45:44;7.77;;;7.07;;
50012;SDS011;35901;48.694;9.476;2022-08-27T00:48:11;8.23;;;7.43;;
50012;SDS011;35901;48.694;9.476;2022-08-27T00:50:42;8.10;;;7.30;;
50012;SDS011;35901;48.694;9.476;2022-08-27T00:53:16;7.63;;;6.83;;
50012;SDS011;35901;48.694;9.476;2022-08-27T00:56:07;7.27;;;6.57;;
50012;SDS011;35901;48.694;9.476;2022-08-27T00:58:40;7.00;;;6.40;;
50012;SDS011;35901;48.694;9.476;2022-08-27T01:01:10;7.33;;;6.23;;
50012;SDS011;35901;48.694;9.476;2022-08-27T01:03:39;7.93;;;7.20;;
50012;SDS011;35901;48.694;9.476;2022-08-27T01:06:09;7.40;;;6.70;;
50012;SDS011;35901;48.694;9.476;2022-08-27T01:08:38;6.77;;;6.17;;
50012;SDS011;35901;48.694;9.476;2022-08-27T01:11:08;8.17;;;7.20;;
50012;SDS011;35901;48.694;9.476;2022-08-27T01:13:40;8.20;;;7.50;;
50012;SDS011;35901;48.694;9.476;2022-08-27T01:16:07;9.13;;;7.93;;
50012;SDS011;35901;48.694;9.476;2022-08-27T01:18:34;8.00;;;7.20;;
50012;SDS011;35901;48.694;9.476;2022-08-27T01:21:08;8.33;;;7.63;;
50012;SDS011;35901;48.694;9.476;2022-08-27T01:26:37;8.07;;;7.27;;
50012;SDS011;35901;48.694;9.476;2022-08-27T01:29:05;8.40;;;7.60;;
50012;SDS011;35901;48.694;9.476;2022-08-27T01:31:30;8.03;;;7.27;;
50012;SDS011;35901;48.694;9.476;2022-08-27T01:34:02;8.33;;;7.53;;
50012;SDS011;35901;48.694;9.476;2022-08-27T01:36:29;8.53;;;7.73;;
50012;SDS011;35901;48.694;9.476;2022-08-27T01:38:55;8.77;;;7.87;;
50012;SDS011;35901;48.694;9.476;2022-08-27T01:41:22;9.00;;;8.17;;
50012;SDS011;35901;48.694;9.476;2022-08-27T01:43:48;10.73;;;8.37;;
50012;SDS011;35901;48.694;9.476;2022-08-27T01:46:14;8.47;;;7.70;;
50012;SDS011;35901;48.694;9.476;2022-08-27T01:48:45;8.13;;;7.33;;
50012;SDS011;35901;48.694;9.476;2022-08-27T01:51:10;8.80;;;7.90;;
50012;SDS011;35901;48.694;9.476;2022-08-27T01:53:36;10.30;;;9.27;;
50012;SDS011;35901;48.694;9.476;2022-08-27T01:56:02;11.23;;;9.70;;
50012;SDS011;35901;48.694;9.476;2022-08-27T01:58:28;9.67;;;7.63;;
50012;SDS011;35901;48.694;9.476;2022-08-27T02:00:56;8.20;;;7.47;;
50012;SDS011;35901;48.694;9.476;2022-08-27T02:03:27;8.17;;;7.37;;
50012;SDS011;35901;48.694;9.476;2022-08-27T02:05:53;8.30;;;7.60;;
50012;SDS011;35901;48.694;9.476;2022-08-27T02:08:19;8.00;;;7.30;;
50012;SDS011;35901;48.694;9.476;2022-08-27T02:10:45;9.27;;;8.37;;
50012;SDS011;35901;48.694;9.476;2022-08-27T02:13:13;9.87;;;8.87;;
50012;SDS011;35901;48.694;9.476;2022-08-27T02:15:40;10.10;;;9.20;;
50012;SDS011;35901;48.694;9.476;2022-08-27T02:18:07;10.20;;;9.23;;
50012;SDS011;35901;48.694;9.476;2022-08-27T02:20:33;9.50;;;8.60;;
50012;SDS011;35901;48.694;9.476;2022-08-27T02:23:00;9.33;;;8.50;;
50012;SDS011;35901;48.694;9.476;2022-08-27T02:25:26;9.93;;;9.03;;
50012;SDS011;35901;48.694;9.476;2022-08-27T02:27:56;10.07;;;9.13;;
50012;SDS011;35901;48.694;9.476;2022-08-27T02:30:24;11.53;;;10.50;;
50012;SDS011;35901;48.694;9.476;2022-08-27T02:32:50;10.73;;;9.63;;
50012;SDS011;35901;48.694;9.476;2022-08-27T02:35:17;10.37;;;9.27;;
50012;SDS011;35901;48.694;9.476;2022-08-27T02:37:45;9.97;;;8.97;;
50012;SDS011;35901;48.694;9.476;2022-08-27T02:40:12;8.83;;;8.00;;
50012;SDS011;35901;48.694;9.476;2022-08-27T02:42:41;10.13;;;9.13;;
50012;SDS011;35901;48.694;9.476;2022-08-27T02:45:08;9.13;;;8.23;;
50012;SDS011;35901;48.694;9.476;2022-08-27T02:47:35;9.43;;;8.43;;
50012;SDS011;35901;48.694;9.476;2022-08-27T02:50:00;8.90;;;8.10;;
50012;SDS011;35901;48.694;9.476;2022-08-27T02:52:28;8.30;;;7.50;;
50012;SDS011;35901;48.694;9.476;2022-08-27T02:54:55;9.03;;;8.13;;
50012;SDS011;35901;48.694;9.476;2022-08-27T02:57:21;8.60;;;7.80;;
50012;SDS011;35901;48.694;9.476;2022-08-27T02:59:47;9.50;;;8.60;;
50012;SDS011;35901;48.694;9.476;2022-08-27T03:02:14;9.23;;;8.33;;
50012;SDS011;35901;48.694;9.476;2022-08-27T03:04:39;8.97;;;8.17;;
50012;SDS011;35901;48.694;9.476;2022-08-27T03:07:05;10.10;;;9.10;;
50012;SDS011;35901;48.694;9.476;2022-08-27T03:09:32;11.10;;;10.07;;
50012;SDS011;35901;48.694;9.476;2022-08-27T03:11:59;10.93;;;9.83;;
50012;SDS011;35901;48.694;9.476;2022-08-27T03:14:26;10.83;;;9.03;;
50012;SDS011;35901;48.694;9.476;2022-08-27T03:16:52;9.47;;;8.57;;
50012;SDS011;35901;48.694;9.476;2022-08-27T03:19:18;10.83;;;9.77;;
50012;SDS011;35901;48.694;9.476;2022-08-27T03:21:45;10.67;;;9.63;;
50012;SDS011;35901;48.694;9.476;2022-08-27T03:24:11;10.20;;;9.20;;
50012;SDS011;35901;48.694;9.476;2022-08-27T03:26:37;10.07;;;9.07;;
50012;SDS011;35901;48.694;9.476;2022-08-27T03:29:03;9.50;;;8.50;;
50012;SDS011;35901;48.694;9.476;2022-08-27T03:31:29;10.73;;;9.73;;
50012;SDS011;35901;48.694;9.476;2022-08-27T03:34:03;10.70;;;9.60;;
50012;SDS011;35901;48.694;9.476;2022-08-27T03:36:32;11.97;;;10.63;;
50012;SDS011;35901;48.694;9.476;2022-08-27T03:38:57;12.87;;;9.90;;
50012;SDS011;35901;48.694;9.476;2022-08-27T03:41:23;9.77;;;8.87;;
50012;SDS011;35901;48.694;9.476;2022-08-27T03:43:50;9.73;;;8.73;;
50012;SDS011;35901;48.694;9.476;2022-08-27T03:46:19;10.23;;;9.23;;
50012;SDS011;35901;48.694;9.476;2022-08-27T03:48:46;9.87;;;8.80;;
50012;SDS011;35901;48.694;9.476;2022-08-27T03:51:12;9.70;;;8.70;;
50012;SDS011;35901;48.694;9.476;2022-08-27T03:53:41;10.27;;;9.17;;
50012;SDS011;35901;48.694;9.476;2022-08-27T03:56:08;9.47;;;8.57;;
50012;SDS011;35901;48.694;9.476;2022-08-27T03:58:35;10.23;;;8.90;;
50012;SDS011;35901;48.694;9.476;2022-08-27T04:01:01;8.80;;;7.90;;
50012;SDS011;35901;48.694;9.476;2022-08-27T04:03:29;9.30;;;8.50;;
50012;SDS011;35901;48.694;9.476;2022-08-27T04:05:55;9.87;;;8.87;;
50012;SDS011;35901;48.694;9.476;2022-08-27T04:08:22;9.47;;;8.50;;
50012;SDS011;35901;48.694;9.476;2022-08-27T04:10:49;9.40;;;8.43;;
50012;SDS011;35901;48.694;9.476;2022-08-27T04:13:16;9.60;;;8.63;;
50012;SDS011;35901;48.694;9.476;2022-08-27T04:15:43;9.10;;;8.30;;
50012;SDS011;35901;48.694;9.476;2022-08-27T04:18:10;8.93;;;8.13;;
50012;SDS011;35901;48.694;9.476;2022-08-27T04:20:36;9.07;;;8.17;;
50012;SDS011;35901;48.694;9.476;2022-08-27T04:23:03;9.57;;;8.67;;
50012;SDS011;35901;48.694;9.476;2022-08-27T04:25:29;10.90;;;9.80;;
50012;SDS011;35901;48.694;9.476;2022-08-27T04:27:55;10.03;;;9.07;;
50012;SDS011;35901;48.694;9.476;2022-08-27T04:30:21;10.50;;;9.50;;
50012;SDS011;35901;48.694;9.476;2022-08-27T04:32:47;11.00;;;9.90;;
50012;SDS011;35901;48.694;9.476;2022-08-27T04:35:14;10.20;;;9.20;;
50012;SDS011;35901;48.694;9.476;2022-08-27T04:37:40;11.03;;;10.07;;
50012;SDS011;35901;48.694;9.476;2022-08-27T04:40:06;11.40;;;10.20;;
50012;SDS011;35901;48.694;9.476;2022-08-27T04:42:34;11.30;;;10.20;;
50012;SDS011;35901;48.694;9.476;2022-08-27T04:45:00;13.40;;;12.00;;
50012;SDS011;35901;48.694;9.476;2022-08-27T04:47:27;12.83;;;10.83;;
50012;SDS011;35901;48.694;9.476;2022-08-27T04:49:52;13.37;;;11.93;;
50012;SDS011;35901;48.694;9.476;2022-08-27T04:52:18;12.70;;;11.50;;
50012;SDS011;35901;48.694;9.476;2022-08-27T04:54:44;12.57;;;11.37;;
50012;SDS011;35901;48.694;9.476;2022-08-27T04:57:09;14.37;;;12.90;;
50012;SDS011;35901;48.694;9.476;2022-08-27T04:59:36;14.47;;;13.03;;
50012;SDS011;35901;48.694;9.476;2022-08-27T05:02:05;14.70;;;13.23;;
50012;SDS011;35901;48.694;9.476;2022-08-27T05:04:34;15.00;;;13.53;;
50012;SDS011;35901;48.694;9.476;2022-08-27T05:07:02;13.37;;;12.07;;
50012;SDS011;35901;48.694;9.476;2022-08-27T05:09:29;16.57;;;14.87;;
50012;SDS011;35901;48.694;9.476;2022-08-27T05:11:55;18.03;;;16.27;;
50012;SDS011;35901;48.694;9.476;2022-08-27T05:14:20;17.27;;;15.53;;
50012;SDS011;35901;48.694;9.476;2022-08-27T05:16:48;17.33;;;15.53;;
50012;SDS011;35901;48.694;9.476;2022-08-27T05:19:14;17.47;;;15.67;;
50012;SDS011;35901;48.694;9.476;2022-08-27T05:21:42;18.33;;;16.47;;
50012;SDS011;35901;48.694;9.476;2022-08-27T05:24:11;18.63;;;16.73;;
50012;SDS011;35901;48.694;9.476;2022-08-27T05:26:37;18.63;;;16.77;;
50012;SDS011;35901;48.694;9.476;2022-08-27T05:29:03;21.20;;;19.10;;
50012;SDS011;35901;48.694;9.476;2022-08-27T05:31:30;20.13;;;18.07;;
50012;SDS011;35901;48.694;9.476;2022-08-27T05:33:56;20.10;;;18.07;;
50012;SDS011;35901;48.694;9.476;2022-08-27T05:36:23;20.93;;;18.83;;
50012;SDS011;35901;48.694;9.476;2022-08-27T05:38:51;22.53;;;20.17;;
50012;SDS011;35901;48.694;9.476;2022-08-27T05:41:19;21.03;;;18.83;;
50012;SDS011;35901;48.694;9.476;2022-08-27T05:43:50;21.27;;;19.07;;
50012;SDS011;35901;48.694;9.476;2022-08-27T05:46:17;21.73;;;19.43;;
50012;SDS011;35901;48.694;9.476;2022-08-27T05:48:45;22.00;;;19.60;;
50012;SDS011;35901;48.694;9.476;2022-08-27T05:51:11;23.30;;;20.90;;
50012;SDS011;35901;48.694;9.476;2022-08-27T05:53:48;23.70;;;21.30;;
50012;SDS011;35901;48.694;9.476;2022-08-27T05:56:15;21.53;;;19.33;;
50012;SDS011;35901;48.694;9.476;2022-08-27T05:58:43;21.60;;;19.50;;
50012;SDS011;35901;48.694;9.476;2022-08-27T06:01:29;22.37;;;20.03;;
50012;SDS011;35901;48.694;9.476;2022-08-27T06:03:56;21.20;;;19.10;;
50012;SDS011;35901;48.694;9.476;2022-08-27T06:06:22;23.23;;;20.83;;
50012;SDS011;35901;48.694;9.476;2022-08-27T06:08:48;22.23;;;20.03;;
50012;SDS011;35901;48.694;9.476;2022-08-27T06:11:15;23.20;;;20.93;;
50012;SDS011;35901;48.694;9.476;2022-08-27T06:13:43;24.40;;;21.87;;
50012;SDS011;35901;48.694;9.476;2022-08-27T06:16:10;23.33;;;21.03;;
50012;SDS011;35901;48.694;9.476;2022-08-27T06:18:38;22.87;;;20.67;;
50012;SDS011;35901;48.694;9.476;2022-08-27T06:21:06;22.03;;;19.80;;
50012;SDS011;35901;48.694;9.476;2022-08-27T06:23:32;22.13;;;19.97;;
50012;SDS011;35901;48.694;9.476;2022-08-27T06:25:58;22.43;;;20.13;;
50012;SDS011;35901;48.694;9.476;2022-08-27T06:28:25;23.37;;;21.17;;
50012;SDS011;35901;48.694;9.476;2022-08-27T06:31:05;24.17;;;21.57;;
50012;SDS011;35901;48.694;9.476;2022-08-27T06:33:31;25.43;;;22.83;;
50012;SDS011;35901;48.694;9.476;2022-08-27T06:36:01;23.10;;;20.83;;
50012;SDS011;35901;48.694;9.476;2022-08-27T06:38:29;25.27;;;22.53;;
50012;SDS011;35901;48.694;9.476;2022-08-27T06:40:55;25.27;;;22.77;;
50012;SDS011;35901;48.694;9.476;2022-08-27T06:43:22;23.73;;;21.37;;
50012;SDS011;35901;48.694;9.476;2022-08-27T06:45:48;24.50;;;21.90;;
50012;SDS011;35901;48.694;9.476;2022-08-27T06:48:14;27.23;;;24.37;;
50012;SDS011;35901;48.694;9.476;2022-08-27T06:50:41;25.23;;;22.63;;
50012;SDS011;35901;48.694;9.476;2022-08-27T06:53:07;27.23;;;24.50;;
50012;SDS011;35901;48.694;9.476;2022-08-27T06:55:39;26.43;;;23.73;;
50012;SDS011;35901;48.694;9.476;2022-08-27T06:58:10;26.57;;;23.67;;
50012;SDS011;35901;48.694;9.476;2022-08-27T07:00:36;26.67;;;23.77;;
50012;SDS011;35901;48.694;9.476;2022-08-27T07:03:02;26.40;;;23.63;;
50012;SDS011;35901;48.694;9.476;2022-08-27T07:05:30;24.20;;;21.80;;
50012;SDS011;35901;48.694;9.476;2022-08-27T07:07:56;26.30;;;23.60;;
50012;SDS011;35901;48.694;9.476;2022-08-27T07:10:23;25.73;;;23.03;;
50012;SDS011;35901;48.694;9.476;2022-08-27T07:12:48;28.23;;;25.33;;
50012;SDS011;35901;48.694;9.476;2022-08-27T07:15:14;28.97;;;25.87;;
50012;SDS011;35901;48.694;9.476;2022-08-27T07:17:41;25.33;;;22.87;;
50012;SDS011;35901;48.694;9.476;2022-08-27T07:20:09;28.90;;;25.83;;
50012;SDS011;35901;48.694;9.476;2022-08-27T07:22:39;31.40;;;28.00;;
50012;SDS011;35901;48.694;9.476;2022-08-27T07:25:10;29.87;;;26.80;;
50012;SDS011;35901;48.694;9.476;2022-08-27T07:27:39;35.53;;;31.80;;
50012;SDS011;35901;48.694;9.476;2022-08-27T07:30:06;35.47;;;30.87;;
50012;SDS011;35901;48.694;9.476;2022-08-27T07:32:36;33.27;;;29.67;;
50012;SDS011;35901;48.694;9.476;2022-08-27T07:35:02;35.37;;;30.23;;
50012;SDS011;35901;48.694;9.476;2022-08-27T07:37:28;32.47;;;29.00;;
50012;SDS011;35901;48.694;9.476;2022-08-27T07:39:54;35.70;;;30.27;;
50012;SDS011;35901;48.694;9.476;2022-08-27T07:42:19;38.10;;;31.77;;
50012;SDS011;35901;48.694;9.476;2022-08-27T07:45:04;33.00;;;29.07;;
50012;SDS011;35901;48.694;9.476;2022-08-27T07:47:30;32.70;;;29.20;;
50012;SDS011;35901;48.694;9.476;2022-08-27T07:49:56;35.47;;;29.03;;
50012;SDS011;35901;48.694;9.476;2022-08-27T07:52:22;31.00;;;27.73;;
50012;SDS011;35901;48.694;9.476;2022-08-27T07:54:48;32.30;;;28.83;;
50012;SDS011;35901;48.694;9.476;2022-08-27T07:57:15;28.87;;;25.77;;
50012;SDS011;35901;48.694;9.476;2022-08-27T07:59:41;29.57;;;26.40;;
50012;SDS011;35901;48.694;9.476;2022-08-27T08:02:07;37.07;;;31.47;;
50012;SDS011;35901;48.694;9.476;2022-08-27T08:04:33;35.60;;;30.13;;
50012;SDS011;35901;48.694;9.476;2022-08-27T08:06:59;32.60;;;28.90;;
50012;SDS011;35901;48.694;9.476;2022-08-27T08:09:25;36.30;;;30.27;;
50012;SDS011;35901;48.694;9.476;2022-08-27T08:11:52;29.27;;;26.17;;
50012;SDS011;35901;48.694;9.476;2022-08-27T08:14:18;32.73;;;28.60;;
50012;SDS011;35901;48.694;9.476;2022-08-27T08:16:45;37.03;;;29.77;;
50012;SDS011;35901;48.694;9.476;2022-08-27T08:19:10;39.47;;;33.33;;
50012;SDS011;35901;48.694;9.476;2022-08-27T08:21:37;42.13;;;34.90;;
50012;SDS011;35901;48.694;9.476;2022-08-27T08:24:03;36.30;;;32.40;;
50012;SDS011;35901;48.694;9.476;2022-08-27T08:26:29;37.73;;;31.47;;
50012;SDS011;35901;48.694;9.476;2022-08-27T08:28:55;38.40;;;32.10;;
50012;SDS011;35901;48.694;9.476;2022-08-27T08:31:21;37.63;;;32.20;;
50012;SDS011;35901;48.694;9.476;2022-08-27T08:33:48;33.20;;;29.33;;
50012;SDS011;35901;48.694;9.476;2022-08-27T08:36:14;36.00;;;30.47;;
50012;SDS011;35901;48.694;9.476;2022-08-27T08:38:41;30.73;;;27.13;;
50012;SDS011;35901;48.694;9.476;2022-08-27T08:43:49;33.90;;;29.57;;
50012;SDS011;35901;48.694;9.476;2022-08-27T08:48:46;35.57;;;31.53;;
50012;SDS011;35901;48.694;9.476;2022-08-27T08:51:31;40.30;;;33.47;;
50012;SDS011;35901;48.694;9.476;2022-08-27T08:54:05;37.90;;;32.33;;
50012;SDS011;35901;48.694;9.476;2022-08-27T08:56:39;37.30;;;32.43;;
50012;SDS011;35901;48.694;9.476;2022-08-27T08:59:25;38.90;;;32.97;;
50012;SDS011;35901;48.694;9.476;2022-08-27T09:01:55;38.37;;;31.07;;
50012;SDS011;35901;48.694;9.476;2022-08-27T09:04:22;38.73;;;31.73;;
50012;SDS011;35901;48.694;9.476;2022-08-27T09:06:52;34.27;;;29.57;;
50012;SDS011;35901;48.694;9.476;2022-08-27T09:12:29;33.17;;;27.57;;
50012;SDS011;35901;48.694;9.476;2022-08-27T09:15:08;31.67;;;26.70;;
50012;SDS011;35901;48.694;9.476;2022-08-27T09:17:41;28.63;;;25.53;;
50012;SDS011;35901;48.694;9.476;2022-08-27T09:20:08;27.10;;;24.30;;
50012;SDS011;35901;48.694;9.476;2022-08-27T09:25:12;28.67;;;25.80;;
50012;SDS011;35901;48.694;9.476;2022-08-27T09:27:41;30.33;;;26.53;;
50012;SDS011;35901;48.694;9.476;2022-08-27T09:30:09;28.00;;;25.03;;
50012;SDS011;35901;48.694;9.476;2022-08-27T09:32:36;27.87;;;24.93;;
50012;SDS011;35901;48.694;9.476;2022-08-27T09:35:04;27.97;;;25.03;;
50012;SDS011;35901;48.694;9.476;2022-08-27T09:37:38;27.37;;;24.53;;
50012;SDS011;35901;48.694;9.476;2022-08-27T09:42:55;30.50;;;27.20;;
50012;SDS011;35901;48.694;9.476;2022-08-27T09:45:28;25.97;;;23.27;;
50012;SDS011;35901;48.694;9.476;2022-08-27T09:48:06;27.67;;;24.77;;
50012;SDS011;35901;48.694;9.476;2022-08-27T09:50:40;26.67;;;23.93;;
50012;SDS011;35901;48.694;9.476;2022-08-27T09:53:20;33.47;;;29.00;;
50012;SDS011;35901;48.694;9.476;2022-08-27T09:55:55;30.40;;;27.27;;
50012;SDS011;35901;48.694;9.476;2022-08-27T09:58:29;29.93;;;26.70;;
50012;SDS011;35901;48.694;9.476;2022-08-27T10:00:58;27.27;;;24.40;;
50012;SDS011;35901;48.694;9.476;2022-08-27T10:03:30;29.40;;;26.47;;
50012;SDS011;35901;48.694;9.476;2022-08-27T10:05:56;32.53;;;29.13;;
50012;SDS011;35901;48.694;9.476;2022-08-27T10:08:37;25.67;;;23.07;;
50012;SDS011;35901;48.694;9.476;2022-08-27T10:11:24;25.67;;;23.07;;
50012;SDS011;35901;48.694;9.476;2022-08-27T10:16:30;21.27;;;19.27;;
50012;SDS011;35901;48.694;9.476;2022-08-27T10:27:50;9.63;;;8.80;;
50012;SDS011;35901;48.694;9.476;2022-08-27T10:33:26;8.03;;;7.37;;
50012;SDS011;35901;48.694;9.476;2022-08-27T10:36:09;8.57;;;7.83;;
50012;SDS011;35901;48.694;9.476;2022-08-27T10:39:00;8.73;;;7.93;;
50012;SDS011;35901;48.694;9.476;2022-08-27T10:41:36;7.87;;;7.17;;
50012;SDS011;35901;48.694;9.476;2022-08-27T10:52:33;10.37;;;9.37;;
50012;SDS011;35901;48.694;9.476;2022-08-27T10:55:19;8.40;;;7.60;;
50012;SDS011;35901;48.694;9.476;2022-08-27T11:03:39;8.87;;;8.07;;
50012;SDS011;35901;48.694;9.476;2022-08-27T11:09:33;9.23;;;8.43;;
50012;SDS011;35901;48.694;9.476;2022-08-27T11:12:07;10.60;;;9.13;;
50012;SDS011;35901;48.694;9.476;2022-08-27T11:14:37;9.13;;;8.27;;
50012;SDS011;35901;48.694;9.476;2022-08-27T11:17:14;9.70;;;8.80;;
50012;SDS011;35901;48.694;9.476;2022-08-27T11:22:31;9.30;;;8.50;;
50012;SDS011;35901;48.694;9.476;2022-08-27T11:25:04;9.27;;;8.50;;
50012;SDS011;35901;48.694;9.476;2022-08-27T11:27:34;12.27;;;9.00;;
50012;SDS011;35901;48.694;9.476;2022-08-27T11:30:04;9.50;;;8.50;;
50012;SDS011;35901;48.694;9.476;2022-08-27T11:32:45;9.77;;;8.97;;
50012;SDS011;35901;48.694;9.476;2022-08-27T11:35:41;8.93;;;8.13;;
50012;SDS011;35901;48.694;9.476;2022-08-27T11:41:16;9.83;;;8.97;;
50012;SDS011;35901;48.694;9.476;2022-08-27T11:43:56;9.20;;;8.40;;
50012;SDS011;35901;48.694;9.476;2022-08-27T11:46:24;10.20;;;9.20;;
50012;SDS011;35901;48.694;9.476;2022-08-27T11:48:56;9.67;;;8.87;;
50012;SDS011;35901;48.694;9.476;2022-08-27T11:51:32;9.50;;;8.67;;
50012;SDS011;35901;48.694;9.476;2022-08-27T11:54:00;10.20;;;9.30;;
50012;SDS011;35901;48.694;9.476;2022-08-27T11:56:34;8.40;;;7.70;;
50012;SDS011;35901;48.694;9.476;2022-08-27T12:01:53;6.30;;;5.80;;
50012;SDS011;35901;48.694;9.476;2022-08-27T12:10:00;6.90;;;6.40;;
50012;SDS011;35901;48.694;9.476;2022-08-27T12:12:41;8.23;;;7.43;;
50012;SDS011;35901;48.694;9.476;2022-08-27T12:15:27;7.73;;;7.00;;
50012;SDS011;35901;48.694;9.476;2022-08-27T12:18:08;8.17;;;7.47;;
50012;SDS011;35901;48.694;9.476;2022-08-27T12:26:58;7.60;;;6.90;;
50012;SDS011;35901;48.694;9.476;2022-08-27T12:34:32;8.20;;;7.50;;
50012;SDS011;35901;48.694;9.476;2022-08-27T12:37:07;7.93;;;7.23;;
50012;SDS011;35901;48.694;9.476;2022-08-27T12:39:35;7.77;;;6.97;;
50012;SDS011;35901;48.694;9.476;2022-08-27T12:42:10;8.53;;;7.83;;
50012;SDS011;35901;48.694;9.476;2022-08-27T12:44:38;7.83;;;7.23;;
50012;SDS011;35901;48.694;9.476;2022-08-27T12:47:04;8.23;;;7.53;;
50012;SDS011;35901;48.694;9.476;2022-08-27T12:49:56;7.10;;;6.50;;
50012;SDS011;35901;48.694;9.476;2022-08-27T12:58:22;7.43;;;6.83;;
50012;SDS011;35901;48.694;9.476;2022-08-27T13:01:10;7.53;;;6.87;;
50012;SDS011;35901;48.694;9.476;2022-08-27T13:03:49;7.47;;;6.77;;
50012;SDS011;35901;48.694;9.476;2022-08-27T13:06:24;6.60;;;6.00;;
50012;SDS011;35901;48.694;9.476;2022-08-27T13:08:57;6.20;;;5.70;;
50012;SDS011;35901;48.694;9.476;2022-08-27T13:11:32;6.23;;;5.73;;
50012;SDS011;35901;48.694;9.476;2022-08-27T13:14:11;6.80;;;6.23;;
50012;SDS011;35901;48.694;9.476;2022-08-27T13:16:55;6.33;;;5.80;;
50012;SDS011;35901;48.694;9.476;2022-08-27T13:19:33;7.13;;;6.53;;
50012;SDS011;35901;48.694;9.476;2022-08-27T13:22:02;6.40;;;5.90;;
50012;SDS011;35901;48.694;9.476;2022-08-27T13:24:33;5.80;;;5.30;;
50012;SDS011;35901;48.694;9.476;2022-08-27T13:27:10;5.97;;;5.57;;
50012;SDS011;35901;48.694;9.476;2022-08-27T13:29:36;6.37;;;5.87;;
50012;SDS011;35901;48.694;9.476;2022-08-27T13:32:03;5.53;;;5.13;;
50012;SDS011;35901;48.694;9.476;2022-08-27T13:34:31;5.60;;;5.10;;
50012;SDS011;35901;48.694;9.476;2022-08-27T13:37:02;6.47;;;5.87;;
50012;SDS011;35901;48.694;9.476;2022-08-27T13:39:33;6.33;;;5.83;;
50012;SDS011;35901;48.694;9.476;2022-08-27T13:42:00;6.20;;;5.50;;
50012;SDS011;35901;48.694;9.476;2022-08-27T13:44:39;6.90;;;6.30;;
50012;SDS011;35901;48.694;9.476;2022-08-27T13:47:07;6.63;;;6.03;;
50012;SDS011;35901;48.694;9.476;2022-08-27T13:49:39;6.57;;;6.00;;
50012;SDS011;35901;48.694;9.476;2022-08-27T13:54:46;5.10;;;4.70;;
50012;SDS011;35901;48.694;9.476;2022-08-27T13:57:29;5.37;;;4.93;;
50012;SDS011;35901;48.694;9.476;2022-08-27T14:00:07;5.60;;;5.20;;
50012;SDS011;35901;48.694;9.476;2022-08-27T14:02:37;5.57;;;5.17;;
50012;SDS011;35901;48.694;9.476;2022-08-27T14:05:10;6.43;;;5.93;;
50012;SDS011;35901;48.694;9.476;2022-08-27T14:07:52;5.93;;;5.43;;
50012;SDS011;35901;48.694;9.476;2022-08-27T14:10:24;6.87;;;6.17;;
50012;SDS011;35901;48.694;9.476;2022-08-27T14:12:57;6.50;;;5.63;;
50012;SDS011;35901;48.694;9.476;2022-08-27T14:15:51;5.30;;;4.90;;
50012;SDS011;35901;48.694;9.476;2022-08-27T14:18:25;5.47;;;5.07;;
50012;SDS011;35901;48.694;9.476;2022-08-27T14:21:00;5.33;;;4.83;;
50012;SDS011;35901;48.694;9.476;2022-08-27T14:23:27;5.50;;;5.10;;
50012;SDS011;35901;48.694;9.476;2022-08-27T14:25:58;5.43;;;5.03;;
50012;SDS011;35901;48.694;9.476;2022-08-27T14:28:25;4.80;;;4.43;;
50012;SDS011;35901;48.694;9.476;2022-08-27T14:30:50;6.10;;;5.60;;
50012;SDS011;35901;48.694;9.476;2022-08-27T14:33:16;5.43;;;4.93;;
50012;SDS011;35901;48.694;9.476;2022-08-27T14:35:43;6.00;;;5.50;;
50012;SDS011;35901;48.694;9.476;2022-08-27T14:38:14;5.57;;;5.10;;
50012;SDS011;35901;48.694;9.476;2022-08-27T14:40:45;6.07;;;5.60;;
50012;SDS011;35901;48.694;9.476;2022-08-27T14:43:12;5.53;;;5.10;;
50012;SDS011;35901;48.694;9.476;2022-08-27T14:45:38;5.30;;;4.90;;
50012;SDS011;35901;48.694;9.476;2022-08-27T14:48:09;5.90;;;5.40;;
50012;SDS011;35901;48.694;9.476;2022-08-27T14:50:37;5.50;;;5.10;;
50012;SDS011;35901;48.694;9.476;2022-08-27T14:53:06;5.73;;;5.33;;
50012;SDS011;35901;48.694;9.476;2022-08-27T14:55:32;5.80;;;5.30;;
50012;SDS011;35901;48.694;9.476;2022-08-27T14:57:58;6.17;;;5.67;;
50012;SDS011;35901;48.694;9.476;2022-08-27T15:00:24;5.93;;;5.43;;
50012;SDS011;35901;48.694;9.476;2022-08-27T15:02:50;5.53;;;5.03;;
50012;SDS011;35901;48.694;9.476;2022-08-27T15:05:18;5.90;;;5.33;;
50012;SDS011;35901;48.694;9.476;2022-08-27T15:07:44;6.17;;;5.57;;
50012;SDS011;35901;48.694;9.476;2022-08-27T15:10:10;5.80;;;5.30;;
50012;SDS011;35901;48.694;9.476;2022-08-27T15:12:37;5.13;;;4.73;;
50012;SDS011;35901;48.694;9.476;2022-08-27T15:15:05;5.50;;;5.10;;
50012;SDS011;35901;48.694;9.476;2022-08-27T15:17:32;6.57;;;5.70;;
50012;SDS011;35901;48.694;9.476;2022-08-27T15:19:58;6.00;;;5.50;;
50012;SDS011;35901;48.694;9.476;2022-08-27T15:22:25;6.10;;;5.60;;
50012;SDS011;35901;48.694;9.476;2022-08-27T15:24:57;6.03;;;5.53;;
50012;SDS011;35901;48.694;9.476;2022-08-27T15:27:24;6.03;;;5.53;;
50012;SDS011;35901;48.694;9.476;2022-08-27T15:29:51;6.57;;;5.97;;
50012;SDS011;35901;48.694;9.476;2022-08-27T15:32:27;5.43;;;5.03;;
50012;SDS011;35901;48.694;9.476;2022-08-27T15:34:55;6.47;;;5.70;;
50012;SDS011;35901;48.694;9.476;2022-08-27T15:37:23;6.30;;;5.80;;
50012;SDS011;35901;48.694;9.476;2022-08-27T15:39:49;6.50;;;6.00;;
50012;SDS011;35901;48.694;9.476;2022-08-27T15:42:15;6.40;;;5.80;;
50012;SDS011;35901;48.694;9.476;2022-08-27T15:44:43;6.10;;;5.60;;
50012;SDS011;35901;48.694;9.476;2022-08-27T15:47:12;7.20;;;6.37;;
50012;SDS011;35901;48.694;9.476;2022-08-27T15:49:37;6.30;;;5.77;;
50012;SDS011;35901;48.694;9.476;2022-08-27T15:52:05;6.60;;;6.00;;
50012;SDS011;35901;48.694;9.476;2022-08-27T15:54:31;7.50;;;6.80;;
50012;SDS011;35901;48.694;9.476;2022-08-27T15:56:57;6.87;;;6.37;;
50012;SDS011;35901;48.694;9.476;2022-08-27T15:59:24;7.10;;;6.50;;
50012;SDS011;35901;48.694;9.476;2022-08-27T16:01:50;7.20;;;6.50;;
50012;SDS011;35901;48.694;9.476;2022-08-27T16:04:16;7.53;;;6.90;;
50012;SDS011;35901;48.694;9.476;2022-08-27T16:06:42;7.00;;;6.33;;
50012;SDS011;35901;48.694;9.476;2022-08-27T16:09:08;7.37;;;6.67;;
50012;SDS011;35901;48.694;9.476;2022-08-27T16:11:34;6.77;;;6.23;;